createdAt,value
2023-03-21T00:01:53.639Z,62.98
2023-03-21T00:04:23.102Z,62.33
2023-03-21T00:06:51.472Z,62.71
2023-03-21T00:09:19.378Z,62.23
2023-03-21T00:11:52.953Z,62.25
2023-03-21T00:14:20.850Z,61.79
2023-03-21T00:16:54.883Z,61.45
2023-03-21T00:19:26.325Z,61.55
2023-03-21T00:22:07.464Z,61.24
2023-03-21T00:24:36.531Z,61.88
2023-03-21T00:29:54.525Z,61.41
2023-03-21T00:32:23.322Z,62.98
2023-03-21T00:35:11.790Z,61.84
2023-03-21T00:37:52.366Z,63.10
2023-03-21T00:40:27.994Z,63.78
2023-03-21T00:43:00.418Z,62.44
2023-03-21T00:45:28.224Z,63.27
2023-03-21T00:47:58.924Z,64.21
2023-03-21T00:50:29.921Z,62.35
2023-03-21T00:52:57.747Z,62.63
2023-03-21T00:55:27.612Z,62.98
2023-03-21T00:58:02.160Z,62.90
2023-03-21T01:00:37.188Z,64.20
2023-03-21T01:03:23.313Z,62.97
2023-03-21T01:06:07.690Z,62.29
2023-03-21T01:08:54.816Z,64.01
2023-03-21T01:11:25.139Z,64.09
2023-03-21T01:14:07.120Z,63.25
2023-03-21T01:16:38.110Z,63.46
2023-03-21T01:19:15.048Z,63.48
2023-03-21T01:21:50.357Z,62.52
2023-03-21T01:24:20.312Z,61.35
2023-03-21T01:26:48.096Z,61.73
2023-03-21T01:29:18.075Z,63.42
2023-03-21T01:31:47.634Z,62.70
2023-03-21T01:34:16.013Z,63.82
2023-03-21T01:36:46.295Z,63.20
2023-03-21T01:39:14.282Z,62.99
2023-03-21T01:41:44.677Z,62.54
2023-03-21T01:44:16.944Z,63.11
2023-03-21T01:47:17.599Z,63.90
2023-03-21T01:49:41.053Z,63.52
2023-03-21T01:52:19.127Z,63.30
2023-03-21T01:54:54.738Z,62.82
2023-03-21T01:57:41.013Z,63.42
2023-03-21T02:00:13.671Z,63.90
2023-03-21T02:02:52.226Z,62.53
2023-03-21T02:05:25.368Z,62.55
2023-03-21T02:07:53.729Z,62.89
2023-03-21T02:10:21.972Z,62.63
2023-03-21T02:12:55.683Z,63.33
2023-03-21T02:15:26.673Z,63.92
2023-03-21T02:17:57.014Z,63.52
2023-03-21T02:21:10.671Z,65.10
2023-03-21T02:24:04.386Z,63.62
2023-03-21T02:27:01.442Z,63.05
2023-03-21T02:30:29.478Z,64.20
2023-03-21T02:33:31.625Z,63.25
2023-03-21T02:36:17.629Z,62.95
2023-03-21T02:38:53.647Z,63.65
2023-03-21T02:41:29.838Z,64.52
2023-03-21T02:44:07.596Z,63.51
2023-03-21T02:46:45.641Z,65.12
2023-03-21T02:49:24.080Z,64.59
2023-03-21T02:51:54.241Z,64.99
2023-03-21T02:54:38.332Z,65.35
2023-03-21T02:57:12.275Z,64.58
2023-03-21T02:59:53.174Z,64.61
2023-03-21T03:02:24.919Z,64.44
2023-03-21T03:04:52.767Z,65.11
2023-03-21T03:07:33.200Z,65.86
2023-03-21T03:10:24.216Z,65.57
2023-03-21T03:12:59.671Z,67.01
2023-03-21T03:15:36.341Z,65.65
2023-03-21T03:18:12.453Z,65.55
2023-03-21T03:20:47.779Z,65.37
2023-03-21T03:23:25.215Z,66.66
2023-03-21T03:25:57.339Z,67.82
2023-03-21T03:28:27.785Z,68.24
2023-03-21T03:31:08.684Z,67.22
2023-03-21T03:33:45.800Z,66.78
2023-03-21T03:36:30.491Z,66.46
2023-03-21T03:39:01.650Z,67.32
2023-03-21T03:42:00.903Z,67.90
2023-03-21T03:44:21.875Z,66.86
2023-03-21T03:46:55.403Z,65.80
2023-03-21T03:49:30.928Z,67.21
2023-03-21T03:52:01.936Z,65.55
2023-03-21T03:54:34.092Z,65.93
2023-03-21T03:57:06.032Z,66.25
2023-03-21T03:59:43.043Z,66.11
2023-03-21T04:02:17.291Z,66.05
2023-03-21T04:04:45.296Z,66.85
2023-03-21T04:07:13.020Z,67.11
2023-03-21T04:09:44.839Z,68.63
2023-03-21T04:12:14.370Z,68.70
2023-03-21T04:14:47.143Z,68.08
2023-03-21T04:17:15.896Z,68.75
2023-03-21T04:19:45.525Z,68.56
2023-03-21T04:22:13.943Z,69.16
2023-03-21T04:24:49.839Z,68.24
2023-03-21T04:27:18.994Z,68.59
2023-03-21T04:29:46.769Z,68.03
2023-03-21T04:32:17.844Z,68.74
2023-03-21T04:34:50.017Z,68.79
2023-03-21T04:37:19.109Z,69.27
2023-03-21T04:39:49.619Z,70.06
2023-03-21T04:42:21.705Z,69.70
2023-03-21T04:44:58.597Z,68.43
2023-03-21T04:47:26.815Z,68.85
2023-03-21T04:49:54.677Z,70.33
2023-03-21T04:52:25.582Z,70.81
2023-03-21T04:54:53.522Z,68.47
2023-03-21T04:57:22.720Z,68.97
2023-03-21T04:59:52.612Z,69.68
2023-03-21T05:02:20.585Z,70.74
2023-03-21T05:04:50.169Z,71.70
2023-03-21T05:07:26.528Z,72.75
2023-03-21T05:10:00.773Z,70.11
2023-03-21T05:12:31.382Z,71.96
2023-03-21T05:14:59.194Z,72.05
2023-03-21T05:17:36.594Z,72.24
2023-03-21T05:20:06.213Z,72.95
2023-03-21T05:22:43.002Z,72.87
2023-03-21T05:25:14.181Z,72.50
2023-03-21T05:27:45.409Z,70.27
2023-03-21T05:30:17.822Z,71.76
2023-03-21T05:32:48.429Z,71.68
2023-03-21T05:35:18.740Z,71.75
2023-03-21T05:37:46.531Z,72.22
2023-03-21T05:40:14.839Z,71.82
2023-03-21T05:42:44.093Z,73.13
2023-03-21T05:45:12.827Z,74.82
2023-03-21T05:47:42.610Z,73.37
2023-03-21T05:50:14.296Z,73.51
2023-03-21T05:52:42.784Z,71.31
2023-03-21T05:55:10.965Z,70.84
2023-03-21T05:57:42.836Z,71.14
2023-03-21T06:00:16.242Z,71.58
2023-03-21T06:02:44.478Z,70.95
2023-03-21T06:05:12.565Z,71.75
2023-03-21T06:07:42.543Z,70.69
2023-03-21T06:10:11.565Z,70.72
2023-03-21T06:12:43.189Z,69.57
2023-03-21T06:15:13.390Z,72.33
2023-03-21T06:17:43.947Z,72.25
2023-03-21T06:20:21.293Z,71.61
2023-03-21T06:22:50.503Z,71.12
2023-03-21T06:25:18.724Z,71.66
2023-03-21T06:27:48.302Z,69.14
2023-03-21T06:30:18.568Z,68.75
2023-03-21T06:32:48.040Z,69.55
2023-03-21T06:35:16.626Z,70.64
2023-03-21T06:37:51.731Z,71.04
2023-03-21T06:40:22.479Z,69.72
2023-03-21T06:42:50.336Z,69.56
2023-03-21T06:45:21.370Z,69.71
2023-03-21T06:47:51.248Z,68.39
2023-03-21T06:50:19.108Z,69.70
2023-03-21T06:52:46.900Z,70.02
2023-03-21T06:55:14.679Z,70.59
2023-03-21T06:57:42.607Z,69.19
2023-03-21T07:00:11.842Z,69.88
2023-03-21T07:02:41.127Z,70.58
2023-03-21T07:05:09.803Z,70.83
2023-03-21T07:07:37.846Z,71.09
2023-03-21T07:10:07.001Z,70.06
2023-03-21T07:12:36.035Z,70.87
2023-03-21T07:15:05.898Z,70.88
2023-03-21T07:17:34.562Z,71.39
2023-03-21T07:20:06.744Z,67.78
2023-03-21T07:22:34.919Z,68.60
2023-03-21T07:25:17.281Z,67.98
2023-03-21T07:27:46.555Z,68.64
2023-03-21T07:30:18.330Z,67.67
2023-03-21T07:32:49.153Z,67.00
2023-03-21T07:35:21.526Z,68.29
2023-03-21T07:37:49.726Z,67.21
2023-03-21T07:40:18.604Z,66.59
2023-03-21T07:42:50.883Z,65.14
2023-03-21T07:45:27.354Z,66.20
2023-03-21T07:48:00.584Z,65.28
2023-03-21T07:50:30.127Z,62.52
2023-03-21T07:53:02.167Z,64.12
2023-03-21T07:55:30.865Z,63.69
2023-03-21T07:58:02.818Z,63.73
2023-03-21T08:00:34.592Z,62.85
2023-03-21T08:03:02.980Z,64.64
2023-03-21T08:05:36.270Z,62.33
2023-03-21T08:08:07.097Z,63.01
2023-03-21T08:10:36.084Z,61.98
2023-03-21T08:13:04.171Z,62.00
2023-03-21T08:15:35.224Z,61.70
2023-03-21T08:18:06.424Z,60.93
2023-03-21T08:20:35.802Z,61.90
2023-03-21T08:23:13.897Z,61.33
2023-03-21T08:25:42.170Z,62.31
2023-03-21T08:28:10.549Z,59.30
2023-03-21T08:30:39.763Z,59.67
2023-03-21T08:33:08.074Z,58.32
2023-03-21T08:35:41.395Z,57.92
2023-03-21T08:38:10.123Z,59.31
2023-03-21T08:40:41.342Z,58.46
2023-03-21T08:43:09.224Z,57.95
2023-03-21T08:45:37.376Z,55.55
2023-03-21T08:48:08.450Z,56.25
2023-03-21T08:50:36.872Z,57.02
2023-03-21T08:53:09.843Z,56.55
2023-03-21T08:55:41.408Z,57.20
2023-03-21T08:58:17.632Z,57.29
2023-03-21T09:00:45.441Z,54.89
2023-03-21T09:03:15.656Z,55.66
2023-03-21T09:05:45.664Z,56.95
2023-03-21T09:08:14.825Z,53.52
2023-03-21T09:10:46.205Z,52.50
2023-03-21T09:13:13.969Z,53.92
2023-03-21T09:15:45.390Z,48.96
2023-03-21T09:18:19.006Z,49.88
2023-03-21T09:21:00.961Z,49.44
2023-03-21T09:23:30.509Z,48.28
2023-03-21T09:25:58.803Z,49.26
2023-03-21T09:28:31.650Z,49.27
2023-03-21T09:31:06.493Z,49.41
2023-03-21T09:33:35.436Z,49.86
2023-03-21T09:36:09.939Z,50.88
2023-03-21T09:38:45.067Z,50.82
2023-03-21T09:41:24.853Z,49.84
2023-03-21T09:44:00.364Z,48.07
2023-03-21T09:46:35.201Z,48.57
2023-03-21T09:49:11.077Z,48.79
2023-03-21T09:51:48.209Z,48.97
2023-03-21T09:54:22.867Z,50.92
2023-03-21T09:56:53.285Z,50.96
2023-03-21T09:59:25.623Z,50.50
2023-03-21T10:01:55.371Z,49.31
2023-03-21T10:04:24.638Z,49.77
2023-03-21T10:06:57.872Z,51.30
2023-03-21T10:09:35.123Z,49.01
2023-03-21T10:12:06.390Z,52.05
2023-03-21T10:14:36.878Z,50.17
2023-03-21T10:17:15.041Z,52.04
2023-03-21T10:19:46.705Z,50.44
2023-03-21T10:22:17.562Z,52.20
2023-03-21T10:24:52.548Z,50.74
2023-03-21T10:27:21.238Z,51.32
2023-03-21T10:29:53.202Z,52.04
2023-03-21T10:32:23.622Z,51.49
2023-03-21T10:37:26.314Z,47.23
2023-03-21T10:39:58.511Z,49.59
2023-03-21T10:42:29.578Z,52.01
2023-03-21T10:45:01.056Z,49.38
2023-03-21T10:47:35.955Z,49.39
2023-03-21T10:50:10.782Z,49.80
2023-03-21T10:52:44.178Z,49.26
2023-03-21T10:55:23.561Z,49.90
2023-03-21T10:57:59.221Z,48.83
2023-03-21T11:00:29.789Z,48.69
2023-03-21T11:02:58.833Z,48.50
2023-03-21T11:05:28.452Z,49.85
2023-03-21T11:08:01.256Z,49.12
2023-03-21T11:10:35.649Z,49.02
2023-03-21T11:13:11.289Z,51.16
2023-03-21T11:15:45.762Z,50.68
2023-03-21T11:18:22.498Z,49.08
2023-03-21T11:20:55.405Z,49.09
2023-03-21T11:23:27.719Z,50.77
2023-03-21T11:26:01.710Z,49.95
2023-03-21T11:28:40.423Z,49.93
2023-03-21T11:31:09.833Z,49.68
2023-03-21T11:33:42.479Z,51.04
2023-03-21T11:36:34.186Z,50.04
2023-03-21T11:39:14.915Z,50.43
2023-03-21T11:41:45.277Z,50.44
2023-03-21T11:44:31.427Z,50.74
2023-03-21T11:47:05.246Z,50.12
2023-03-21T11:49:36.948Z,49.74
2023-03-21T11:52:16.193Z,48.92
2023-03-21T11:55:05.138Z,48.71
2023-03-21T11:57:43.409Z,50.37
2023-03-21T12:00:17.694Z,51.59
2023-03-21T12:02:56.281Z,51.18
2023-03-21T12:05:31.281Z,51.00
2023-03-21T12:08:05.235Z,49.72
2023-03-21T12:10:42.296Z,50.66
2023-03-21T12:13:24.575Z,50.58
2023-03-21T12:15:59.733Z,50.66
2023-03-21T12:18:55.145Z,51.24
2023-03-21T12:21:29.927Z,52.07
2023-03-21T12:24:06.349Z,49.96
2023-03-21T12:26:44.596Z,50.16
2023-03-21T12:29:39.310Z,48.43
2023-03-21T12:32:15.951Z,47.42
2023-03-21T12:35:00.260Z,47.59
2023-03-21T12:37:35.863Z,47.57
2023-03-21T12:40:16.543Z,46.15
2023-03-21T12:42:54.184Z,46.73
2023-03-21T12:45:29.441Z,46.12
2023-03-21T12:48:04.270Z,45.74
2023-03-21T12:50:38.169Z,47.46
2023-03-21T12:53:28.590Z,46.13
2023-03-21T12:55:58.882Z,45.36
2023-03-21T12:58:28.567Z,44.42
2023-03-21T13:01:01.609Z,45.49
2023-03-21T13:03:40.338Z,46.00
2023-03-21T13:06:11.669Z,43.91
2023-03-21T13:08:42.017Z,44.47
2023-03-21T13:11:14.031Z,44.73
2023-03-21T13:13:45.844Z,43.64
2023-03-21T13:16:18.269Z,43.89
2023-03-21T13:18:56.396Z,42.85
2023-03-21T13:21:39.179Z,42.60
2023-03-21T13:24:19.471Z,42.71
2023-03-21T13:27:04.263Z,44.00
2023-03-21T13:29:34.220Z,43.87
2023-03-21T13:32:16.623Z,43.33
2023-03-21T13:34:45.058Z,42.97
2023-03-21T13:37:19.668Z,42.40
2023-03-21T13:39:48.527Z,43.04
2023-03-21T13:42:26.739Z,47.30
2023-03-21T13:44:57.399Z,51.74
2023-03-21T13:47:47.333Z,52.77
2023-03-21T13:50:55.270Z,53.44
2023-03-21T13:53:42.658Z,52.55
2023-03-21T13:56:25.625Z,52.64
2023-03-21T13:59:01.535Z,52.45
2023-03-21T14:01:33.621Z,52.71
2023-03-21T14:04:08.797Z,52.80
2023-03-21T14:06:43.862Z,51.77
2023-03-21T14:09:19.629Z,51.68
2023-03-21T14:11:49.225Z,51.59
2023-03-21T14:14:20.251Z,51.57
2023-03-21T14:19:39.938Z,52.04
2023-03-21T14:22:15.179Z,52.29
2023-03-21T14:24:49.608Z,51.22
2023-03-21T14:27:19.512Z,51.45
2023-03-21T14:29:49.161Z,51.82
2023-03-21T14:32:23.264Z,52.36
2023-03-21T14:34:53.208Z,53.72
2023-03-21T14:37:33.624Z,54.71
2023-03-21T14:40:02.621Z,57.10
2023-03-21T14:42:38.266Z,54.52
2023-03-21T14:45:20.852Z,55.97
2023-03-21T14:48:06.164Z,56.00
2023-03-21T14:50:41.449Z,55.65
2023-03-21T14:53:13.365Z,56.54
2023-03-21T14:55:46.382Z,55.90
2023-03-21T14:58:15.374Z,53.64
2023-03-21T15:00:48.768Z,55.10
2023-03-21T15:03:19.878Z,55.54
2023-03-21T15:05:51.561Z,56.67
2023-03-21T15:08:23.244Z,55.26
2023-03-21T15:11:08.110Z,52.77
2023-03-21T15:13:38.401Z,53.25
2023-03-21T15:16:07.413Z,53.73
2023-03-21T15:18:43.002Z,53.93
2023-03-21T15:21:16.460Z,56.29
2023-03-21T15:23:46.091Z,55.22
2023-03-21T15:26:18.809Z,55.89
2023-03-21T15:28:49.269Z,56.50
2023-03-21T15:31:20.521Z,54.86
2023-03-21T15:33:50.417Z,55.05
2023-03-21T15:36:24.565Z,55.33
2023-03-21T15:39:03.316Z,55.49
2023-03-21T15:41:35.733Z,55.91
2023-03-21T15:44:07.819Z,54.54
2023-03-21T15:46:44.689Z,55.19
2023-03-21T15:49:21.274Z,55.00
2023-03-21T15:52:05.157Z,55.98
2023-03-21T15:54:40.223Z,54.33
2023-03-21T15:57:23.552Z,57.15
2023-03-21T15:59:55.481Z,55.08
2023-03-21T16:02:28.247Z,55.30
2023-03-21T16:04:57.770Z,55.90
2023-03-21T16:07:30.808Z,56.02
2023-03-21T16:10:01.192Z,57.93
2023-03-21T16:12:29.612Z,55.91
2023-03-21T16:14:57.802Z,55.11
2023-03-21T16:17:30.387Z,57.45
2023-03-21T16:19:58.461Z,55.60
2023-03-21T16:22:43.411Z,55.93
2023-03-21T16:25:12.538Z,55.63
2023-03-21T16:27:40.801Z,55.64
2023-03-21T16:30:19.167Z,55.97
2023-03-21T16:32:47.826Z,55.54
2023-03-21T16:35:22.191Z,55.25
2023-03-21T16:37:56.310Z,55.25
2023-03-21T16:40:29.146Z,55.16
2023-03-21T16:43:12.267Z,54.68
2023-03-21T16:45:40.472Z,53.89
2023-03-21T16:48:12.539Z,56.47
2023-03-21T16:50:42.682Z,55.87
2023-03-21T16:53:12.202Z,55.29
2023-03-21T16:55:41.831Z,55.86
2023-03-21T16:58:10.080Z,55.85
2023-03-21T17:00:38.092Z,55.53
2023-03-21T17:03:19.077Z,55.68
2023-03-21T17:05:48.587Z,54.87
2023-03-21T17:08:20.078Z,55.70
2023-03-21T17:11:06.550Z,55.34
2023-03-21T17:13:35.683Z,54.94
2023-03-21T17:16:03.709Z,54.80
2023-03-21T17:18:32.138Z,55.35
2023-03-21T17:21:01.791Z,55.70
2023-03-21T17:23:31.411Z,55.65
2023-03-21T17:26:02.367Z,55.33
2023-03-21T17:28:31.066Z,55.71
2023-03-21T17:30:58.967Z,56.00
2023-03-21T17:33:27.028Z,55.63
2023-03-21T17:35:54.988Z,55.65
2023-03-21T17:38:26.497Z,55.98
2023-03-21T17:40:55.822Z,55.90
2023-03-21T17:43:26.619Z,56.10
2023-03-21T17:45:56.902Z,56.64
2023-03-21T17:48:29.674Z,57.31
2023-03-21T17:50:57.752Z,57.25
2023-03-21T17:53:26.805Z,57.22
2023-03-21T17:56:01.911Z,57.26
2023-03-21T17:58:32.124Z,57.78
2023-03-21T18:01:02.818Z,58.19
2023-03-21T18:03:30.648Z,58.44
2023-03-21T18:06:00.977Z,59.75
2023-03-21T18:08:29.724Z,60.29
2023-03-21T18:10:59.092Z,61.11
2023-03-21T18:13:28.377Z,60.28
2023-03-21T18:15:59.756Z,61.05
2023-03-21T18:18:28.506Z,62.08
2023-03-21T18:21:01.701Z,62.25
2023-03-21T18:23:29.726Z,62.24
2023-03-21T18:25:59.289Z,63.50
2023-03-21T18:28:28.390Z,63.51
2023-03-21T18:31:09.560Z,64.07
2023-03-21T18:33:40.977Z,62.72
2023-03-21T18:36:13.851Z,63.48
2023-03-21T18:38:42.188Z,62.21
2023-03-21T18:41:11.618Z,62.39
2023-03-21T18:46:31.704Z,61.53
2023-03-21T18:49:19.969Z,61.45
2023-03-21T18:51:48.010Z,60.54
2023-03-21T18:54:15.947Z,61.26
2023-03-21T18:57:34.653Z,60.80
2023-03-21T18:59:42.428Z,61.45
2023-03-21T19:02:13.240Z,60.95
2023-03-21T19:04:41.484Z,63.36
2023-03-21T19:07:22.665Z,63.00
2023-03-21T19:10:15.354Z,64.18
2023-03-21T19:12:42.360Z,63.52
2023-03-21T19:15:11.318Z,63.71
2023-03-21T19:20:31.015Z,63.32
2023-03-21T19:22:58.833Z,64.60
2023-03-21T19:25:27.210Z,64.64
2023-03-21T19:27:57.082Z,63.50
2023-03-21T19:30:30.084Z,63.36
2023-03-21T19:33:00.028Z,63.14
2023-03-21T19:35:41.250Z,62.36
2023-03-21T19:38:11.940Z,62.64
2023-03-21T19:40:42.012Z,62.96
2023-03-21T19:43:31.821Z,62.66
2023-03-21T19:46:00.749Z,63.87
2023-03-21T19:48:29.561Z,62.35
2023-03-21T19:51:36.590Z,62.00
2023-03-21T19:53:56.643Z,61.68
2023-03-21T19:56:27.390Z,60.99
2023-03-21T19:59:01.688Z,62.64
2023-03-21T20:01:35.186Z,62.40
2023-03-21T20:04:03.046Z,62.05
2023-03-21T20:06:30.872Z,63.27
2023-03-21T20:09:41.333Z,62.67
2023-03-21T20:11:46.675Z,61.73
2023-03-21T20:14:18.990Z,62.84
2023-03-21T20:16:47.019Z,62.30
2023-03-21T20:19:16.293Z,61.99
2023-03-21T20:21:52.825Z,61.45
2023-03-21T20:24:23.177Z,61.67
2023-03-21T20:26:53.674Z,61.49
2023-03-21T20:32:14.689Z,61.29
2023-03-21T20:34:46.234Z,61.72
2023-03-21T20:37:14.378Z,61.77
2023-03-21T20:39:54.084Z,61.34
2023-03-21T20:42:24.983Z,61.91
2023-03-21T20:44:59.395Z,61.72
2023-03-21T20:47:28.689Z,60.85
2023-03-21T20:49:56.795Z,60.42
2023-03-21T20:53:00.831Z,61.71
2023-03-21T20:55:16.312Z,60.25
2023-03-21T20:57:44.433Z,60.85
2023-03-21T21:00:17.139Z,62.01
2023-03-21T21:02:53.197Z,61.21
2023-03-21T21:05:28.662Z,62.28
2023-03-21T21:08:01.620Z,62.53
2023-03-21T21:10:31.001Z,62.49
2023-03-21T21:13:01.967Z,61.73
2023-03-21T21:15:42.271Z,60.80
2023-03-21T21:18:17.150Z,60.68
2023-03-21T21:20:45.227Z,59.50
2023-03-21T21:23:13.725Z,60.15
2023-03-21T21:25:41.604Z,58.89
2023-03-21T21:28:14.379Z,59.22
2023-03-21T21:30:43.556Z,60.27
2023-03-21T21:33:14.560Z,58.93
2023-03-21T21:35:47.660Z,58.89
2023-03-21T21:38:17.970Z,59.10
2023-03-21T21:40:46.225Z,59.85
2023-03-21T21:43:14.870Z,61.09
2023-03-21T21:45:46.588Z,59.82
2023-03-21T21:48:16.323Z,59.79
2023-03-21T21:50:54.176Z,60.68
2023-03-21T21:53:28.296Z,60.38
2023-03-21T21:56:03.511Z,60.08
2023-03-21T21:58:33.718Z,61.26
2023-03-21T22:01:19.975Z,61.80
2023-03-21T22:03:51.736Z,60.87
2023-03-21T22:06:19.857Z,61.56
2023-03-21T22:08:52.010Z,61.57
2023-03-21T22:11:28.612Z,61.58
2023-03-21T22:14:00.269Z,62.33
2023-03-21T22:16:43.684Z,60.81
2023-03-21T22:19:15.845Z,60.37
2023-03-21T22:21:46.425Z,60.95
2023-03-21T22:24:16.673Z,62.21
2023-03-21T22:26:44.500Z,61.06
2023-03-21T22:29:12.318Z,61.34
2023-03-21T22:31:43.844Z,61.09
2023-03-21T22:34:17.690Z,62.60
2023-03-21T22:36:47.288Z,60.74
2023-03-21T22:39:15.479Z,60.38
2023-03-21T22:41:43.401Z,60.30
2023-03-21T22:44:11.369Z,59.68
2023-03-21T22:46:42.263Z,60.21
2023-03-21T22:49:14.360Z,60.54
2023-03-21T22:51:45.852Z,61.04
2023-03-21T22:54:25.632Z,61.50
2023-03-21T22:56:58.102Z,61.08
2023-03-21T22:59:29.910Z,61.11
2023-03-21T23:02:03.077Z,61.26
2023-03-21T23:04:32.919Z,60.99
2023-03-21T23:07:05.880Z,60.75
2023-03-21T23:09:36.669Z,61.83
2023-03-21T23:12:09.460Z,62.39
2023-03-21T23:14:39.167Z,62.98
2023-03-21T23:17:10.270Z,63.33
2023-03-21T23:19:41.394Z,63.32
2023-03-21T23:22:12.549Z,62.68
2023-03-21T23:24:40.638Z,63.68
2023-03-21T23:27:10.793Z,63.40
2023-03-21T23:29:41.082Z,63.04
2023-03-21T23:34:57.754Z,63.85
2023-03-21T23:37:30.968Z,63.75
2023-03-21T23:39:59.750Z,64.83
2023-03-21T23:42:30.146Z,64.68
2023-03-21T23:44:58.202Z,64.72
2023-03-21T23:47:32.568Z,65.75
2023-03-21T23:50:02.049Z,66.80
2023-03-21T23:52:29.812Z,67.14
2023-03-21T23:55:00.761Z,67.35
2023-03-21T23:57:30.446Z,68.24
